sensor_id;sensor_type;location;lat;lon;timestamp;P1;durP1;ratioP1;P2;durP2;ratioP2
76714;SDS011;65644;44.990;20.288;2023-11-19T00:02:20;6.07;;;4.65;;
76714;SDS011;65644;44.990;20.288;2023-11-19T00:04:46;6.47;;;4.75;;
76714;SDS011;65644;44.990;20.288;2023-11-19T00:07:13;5.07;;;4.53;;
76714;SDS011;65644;44.990;20.288;2023-11-19T00:09:39;6.13;;;4.72;;
76714;SDS011;65644;44.990;20.288;2023-11-19T00:12:05;5.03;;;4.55;;
76714;SDS011;65644;44.990;20.288;2023-11-19T00:14:32;6.83;;;4.97;;
76714;SDS011;65644;44.990;20.288;2023-11-19T00:16:58;6.38;;;4.57;;
76714;SDS011;65644;44.990;20.288;2023-11-19T00:19:24;4.80;;;4.30;;
76714;SDS011;65644;44.990;20.288;2023-11-19T00:21:51;8.77;;;4.50;;
76714;SDS011;65644;44.990;20.288;2023-11-19T00:24:17;9.27;;;5.40;;
76714;SDS011;65644;44.990;20.288;2023-11-19T00:26:43;6.53;;;4.70;;
76714;SDS011;65644;44.990;20.288;2023-11-19T00:29:09;5.53;;;4.77;;
76714;SDS011;65644;44.990;20.288;2023-11-19T00:31:35;5.73;;;4.50;;
76714;SDS011;65644;44.990;20.288;2023-11-19T00:34:02;6.13;;;4.97;;
76714;SDS011;65644;44.990;20.288;2023-11-19T00:36:28;5.37;;;4.80;;
76714;SDS011;65644;44.990;20.288;2023-11-19T00:38:54;6.97;;;5.17;;
76714;SDS011;65644;44.990;20.288;2023-11-19T00:41:20;6.93;;;4.70;;
76714;SDS011;65644;44.990;20.288;2023-11-19T00:43:47;7.93;;;5.53;;
76714;SDS011;65644;44.990;20.288;2023-11-19T00:46:14;7.07;;;5.23;;
76714;SDS011;65644;44.990;20.288;2023-11-19T00:48:40;7.13;;;5.33;;
76714;SDS011;65644;44.990;20.288;2023-11-19T00:51:06;8.07;;;5.90;;
76714;SDS011;65644;44.990;20.288;2023-11-19T00:53:32;7.50;;;5.23;;
76714;SDS011;65644;44.990;20.288;2023-11-19T00:55:59;8.60;;;5.40;;
76714;SDS011;65644;44.990;20.288;2023-11-19T00:58:25;6.80;;;4.67;;
76714;SDS011;65644;44.990;20.288;2023-11-19T01:00:52;6.40;;;5.10;;
76714;SDS011;65644;44.990;20.288;2023-11-19T01:03:18;6.80;;;4.93;;
76714;SDS011;65644;44.990;20.288;2023-11-19T01:05:44;9.20;;;5.97;;
76714;SDS011;65644;44.990;20.288;2023-11-19T01:08:12;6.83;;;5.87;;
76714;SDS011;65644;44.990;20.288;2023-11-19T01:10:38;7.13;;;5.47;;
76714;SDS011;65644;44.990;20.288;2023-11-19T01:13:04;6.20;;;5.43;;
76714;SDS011;65644;44.990;20.288;2023-11-19T01:15:33;6.10;;;5.13;;
76714;SDS011;65644;44.990;20.288;2023-11-19T01:17:59;8.07;;;5.47;;
76714;SDS011;65644;44.990;20.288;2023-11-19T01:20:30;6.83;;;5.23;;
76714;SDS011;65644;44.990;20.288;2023-11-19T01:22:56;6.27;;;5.50;;
76714;SDS011;65644;44.990;20.288;2023-11-19T01:25:22;9.77;;;5.40;;
76714;SDS011;65644;44.990;20.288;2023-11-19T01:27:48;7.07;;;5.83;;
76714;SDS011;65644;44.990;20.288;2023-11-19T01:30:15;7.43;;;6.13;;
76714;SDS011;65644;44.990;20.288;2023-11-19T01:32:41;6.93;;;5.60;;
76714;SDS011;65644;44.990;20.288;2023-11-19T01:35:07;6.80;;;5.47;;
76714;SDS011;65644;44.990;20.288;2023-11-19T01:37:33;6.90;;;5.90;;
76714;SDS011;65644;44.990;20.288;2023-11-19T01:40:00;7.03;;;5.47;;
76714;SDS011;65644;44.990;20.288;2023-11-19T01:42:29;8.50;;;5.50;;
76714;SDS011;65644;44.990;20.288;2023-11-19T01:44:58;8.67;;;6.57;;
76714;SDS011;65644;44.990;20.288;2023-11-19T01:47:27;7.33;;;6.03;;
76714;SDS011;65644;44.990;20.288;2023-11-19T01:49:54;8.97;;;6.23;;
76714;SDS011;65644;44.990;20.288;2023-11-19T01:52:20;7.10;;;5.63;;
76714;SDS011;65644;44.990;20.288;2023-11-19T01:54:46;7.20;;;5.67;;
76714;SDS011;65644;44.990;20.288;2023-11-19T01:57:13;7.30;;;5.60;;
76714;SDS011;65644;44.990;20.288;2023-11-19T01:59:39;8.70;;;6.23;;
76714;SDS011;65644;44.990;20.288;2023-11-19T02:02:07;8.73;;;5.90;;
76714;SDS011;65644;44.990;20.288;2023-11-19T02:04:33;10.10;;;7.27;;
76714;SDS011;65644;44.990;20.288;2023-11-19T02:07:00;8.43;;;7.10;;
76714;SDS011;65644;44.990;20.288;2023-11-19T02:09:26;9.97;;;7.00;;
76714;SDS011;65644;44.990;20.288;2023-11-19T02:11:53;10.00;;;7.47;;
76714;SDS011;65644;44.990;20.288;2023-11-19T02:14:19;9.17;;;6.70;;
76714;SDS011;65644;44.990;20.288;2023-11-19T02:16:48;9.87;;;6.73;;
76714;SDS011;65644;44.990;20.288;2023-11-19T02:19:14;10.17;;;6.87;;
76714;SDS011;65644;44.990;20.288;2023-11-19T02:21:40;13.07;;;7.80;;
76714;SDS011;65644;44.990;20.288;2023-11-19T02:24:07;14.97;;;8.43;;
76714;SDS011;65644;44.990;20.288;2023-11-19T02:26:39;12.73;;;8.80;;
76714;SDS011;65644;44.990;20.288;2023-11-19T02:29:05;13.93;;;8.23;;
76714;SDS011;65644;44.990;20.288;2023-11-19T02:31:31;12.20;;;7.53;;
76714;SDS011;65644;44.990;20.288;2023-11-19T02:33:59;10.27;;;7.30;;
76714;SDS011;65644;44.990;20.288;2023-11-19T02:36:27;10.17;;;7.40;;
76714;SDS011;65644;44.990;20.288;2023-11-19T02:38:53;9.83;;;7.30;;
76714;SDS011;65644;44.990;20.288;2023-11-19T02:41:20;13.23;;;8.07;;
76714;SDS011;65644;44.990;20.288;2023-11-19T02:43:46;12.53;;;7.70;;
76714;SDS011;65644;44.990;20.288;2023-11-19T02:46:13;10.73;;;7.90;;
76714;SDS011;65644;44.990;20.288;2023-11-19T02:48:42;13.33;;;9.17;;
76714;SDS011;65644;44.990;20.288;2023-11-19T02:51:11;14.73;;;10.13;;
76714;SDS011;65644;44.990;20.288;2023-11-19T02:53:37;15.10;;;9.10;;
76714;SDS011;65644;44.990;20.288;2023-11-19T02:56:04;13.30;;;9.27;;
76714;SDS011;65644;44.990;20.288;2023-11-19T02:58:44;11.80;;;8.70;;
76714;SDS011;65644;44.990;20.288;2023-11-19T03:01:11;12.90;;;8.53;;
76714;SDS011;65644;44.990;20.288;2023-11-19T03:03:49;15.00;;;9.37;;
76714;SDS011;65644;44.990;20.288;2023-11-19T03:06:20;12.90;;;8.33;;
76714;SDS011;65644;44.990;20.288;2023-11-19T03:08:49;11.33;;;9.00;;
76714;SDS011;65644;44.990;20.288;2023-11-19T03:11:15;13.40;;;9.53;;
76714;SDS011;65644;44.990;20.288;2023-11-19T03:13:41;12.47;;;9.10;;
76714;SDS011;65644;44.990;20.288;2023-11-19T03:16:07;14.63;;;9.67;;
76714;SDS011;65644;44.990;20.288;2023-11-19T03:18:34;15.93;;;8.97;;
76714;SDS011;65644;44.990;20.288;2023-11-19T03:21:00;14.70;;;9.37;;
76714;SDS011;65644;44.990;20.288;2023-11-19T03:23:28;12.40;;;9.30;;
76714;SDS011;65644;44.990;20.288;2023-11-19T03:25:54;14.20;;;9.53;;
76714;SDS011;65644;44.990;20.288;2023-11-19T03:28:22;12.70;;;9.57;;
76714;SDS011;65644;44.990;20.288;2023-11-19T03:30:48;14.23;;;9.17;;
76714;SDS011;65644;44.990;20.288;2023-11-19T03:33:14;13.30;;;8.87;;
76714;SDS011;65644;44.990;20.288;2023-11-19T03:35:40;11.57;;;8.80;;
76714;SDS011;65644;44.990;20.288;2023-11-19T03:38:06;11.60;;;8.47;;
76714;SDS011;65644;44.990;20.288;2023-11-19T03:40:32;12.77;;;8.83;;
76714;SDS011;65644;44.990;20.288;2023-11-19T03:42:58;12.00;;;8.70;;
76714;SDS011;65644;44.990;20.288;2023-11-19T03:45:24;14.13;;;9.77;;
76714;SDS011;65644;44.990;20.288;2023-11-19T03:47:50;14.43;;;9.23;;
76714;SDS011;65644;44.990;20.288;2023-11-19T03:50:16;13.90;;;9.50;;
76714;SDS011;65644;44.990;20.288;2023-11-19T03:52:45;12.73;;;9.13;;
76714;SDS011;65644;44.990;20.288;2023-11-19T03:55:11;12.57;;;8.57;;
76714;SDS011;65644;44.990;20.288;2023-11-19T03:57:37;12.70;;;8.87;;
76714;SDS011;65644;44.990;20.288;2023-11-19T04:00:03;11.83;;;8.87;;
76714;SDS011;65644;44.990;20.288;2023-11-19T04:02:34;11.80;;;8.57;;
76714;SDS011;65644;44.990;20.288;2023-11-19T04:05:00;11.27;;;8.33;;
76714;SDS011;65644;44.990;20.288;2023-11-19T04:07:28;12.10;;;9.00;;
76714;SDS011;65644;44.990;20.288;2023-11-19T04:09:54;12.77;;;9.23;;
76714;SDS011;65644;44.990;20.288;2023-11-19T04:12:20;12.20;;;9.23;;
76714;SDS011;65644;44.990;20.288;2023-11-19T04:14:47;13.03;;;8.93;;
76714;SDS011;65644;44.990;20.288;2023-11-19T04:17:13;12.60;;;9.00;;
76714;SDS011;65644;44.990;20.288;2023-11-19T04:19:39;12.03;;;9.00;;
76714;SDS011;65644;44.990;20.288;2023-11-19T04:22:08;13.33;;;9.93;;
76714;SDS011;65644;44.990;20.288;2023-11-19T04:24:34;13.57;;;9.50;;
76714;SDS011;65644;44.990;20.288;2023-11-19T04:27:01;13.40;;;9.83;;
76714;SDS011;65644;44.990;20.288;2023-11-19T04:29:27;14.03;;;10.30;;
76714;SDS011;65644;44.990;20.288;2023-11-19T04:31:53;16.13;;;10.60;;
76714;SDS011;65644;44.990;20.288;2023-11-19T04:34:19;13.27;;;9.80;;
76714;SDS011;65644;44.990;20.288;2023-11-19T04:36:45;12.40;;;9.27;;
76714;SDS011;65644;44.990;20.288;2023-11-19T04:39:11;13.17;;;10.13;;
76714;SDS011;65644;44.990;20.288;2023-11-19T04:41:50;14.77;;;9.67;;
76714;SDS011;65644;44.990;20.288;2023-11-19T04:44:18;13.40;;;9.90;;
76714;SDS011;65644;44.990;20.288;2023-11-19T04:46:44;14.30;;;10.20;;
76714;SDS011;65644;44.990;20.288;2023-11-19T04:49:14;11.80;;;9.27;;
76714;SDS011;65644;44.990;20.288;2023-11-19T04:51:41;13.93;;;9.90;;
76714;SDS011;65644;44.990;20.288;2023-11-19T04:54:08;13.97;;;9.67;;
76714;SDS011;65644;44.990;20.288;2023-11-19T04:56:35;17.37;;;11.10;;
76714;SDS011;65644;44.990;20.288;2023-11-19T04:59:04;22.30;;;15.60;;
76714;SDS011;65644;44.990;20.288;2023-11-19T05:01:34;24.23;;;17.57;;
76714;SDS011;65644;44.990;20.288;2023-11-19T05:04:00;18.27;;;13.70;;
76714;SDS011;65644;44.990;20.288;2023-11-19T05:06:27;14.73;;;10.17;;
76714;SDS011;65644;44.990;20.288;2023-11-19T05:08:54;11.63;;;9.27;;
76714;SDS011;65644;44.990;20.288;2023-11-19T05:11:20;11.13;;;9.23;;
76714;SDS011;65644;44.990;20.288;2023-11-19T05:13:46;14.83;;;9.70;;
76714;SDS011;65644;44.990;20.288;2023-11-19T05:16:13;12.50;;;8.80;;
76714;SDS011;65644;44.990;20.288;2023-11-19T05:18:40;13.80;;;9.03;;
76714;SDS011;65644;44.990;20.288;2023-11-19T05:21:06;14.03;;;9.37;;
76714;SDS011;65644;44.990;20.288;2023-11-19T05:23:33;12.57;;;9.33;;
76714;SDS011;65644;44.990;20.288;2023-11-19T05:25:59;15.03;;;11.10;;
76714;SDS011;65644;44.990;20.288;2023-11-19T05:28:25;13.87;;;10.40;;
76714;SDS011;65644;44.990;20.288;2023-11-19T05:30:51;25.67;;;10.13;;
76714;SDS011;65644;44.990;20.288;2023-11-19T05:33:17;15.67;;;9.57;;
76714;SDS011;65644;44.990;20.288;2023-11-19T05:35:43;13.40;;;10.00;;
76714;SDS011;65644;44.990;20.288;2023-11-19T05:38:09;14.03;;;9.53;;
76714;SDS011;65644;44.990;20.288;2023-11-19T05:40:35;13.93;;;9.63;;
76714;SDS011;65644;44.990;20.288;2023-11-19T05:43:03;15.43;;;9.20;;
76714;SDS011;65644;44.990;20.288;2023-11-19T05:45:30;12.93;;;8.57;;
76714;SDS011;65644;44.990;20.288;2023-11-19T05:47:56;13.63;;;9.67;;
76714;SDS011;65644;44.990;20.288;2023-11-19T05:50:22;14.23;;;9.73;;
76714;SDS011;65644;44.990;20.288;2023-11-19T05:52:49;16.57;;;10.80;;
76714;SDS011;65644;44.990;20.288;2023-11-19T05:55:15;15.83;;;10.70;;
76714;SDS011;65644;44.990;20.288;2023-11-19T05:57:41;24.97;;;15.10;;
76714;SDS011;65644;44.990;20.288;2023-11-19T06:00:07;29.53;;;16.77;;
76714;SDS011;65644;44.990;20.288;2023-11-19T06:02:35;28.33;;;16.40;;
76714;SDS011;65644;44.990;20.288;2023-11-19T06:05:03;28.07;;;18.37;;
76714;SDS011;65644;44.990;20.288;2023-11-19T06:07:31;37.47;;;21.80;;
76714;SDS011;65644;44.990;20.288;2023-11-19T06:09:57;34.87;;;20.40;;
76714;SDS011;65644;44.990;20.288;2023-11-19T06:12:23;27.20;;;17.07;;
76714;SDS011;65644;44.990;20.288;2023-11-19T06:14:49;25.80;;;16.13;;
76714;SDS011;65644;44.990;20.288;2023-11-19T06:17:15;23.20;;;14.30;;
76714;SDS011;65644;44.990;20.288;2023-11-19T06:19:41;21.40;;;13.20;;
76714;SDS011;65644;44.990;20.288;2023-11-19T06:22:07;18.67;;;11.80;;
76714;SDS011;65644;44.990;20.288;2023-11-19T06:24:33;17.47;;;9.87;;
76714;SDS011;65644;44.990;20.288;2023-11-19T06:26:59;16.00;;;11.17;;
76714;SDS011;65644;44.990;20.288;2023-11-19T06:29:25;14.93;;;10.87;;
76714;SDS011;65644;44.990;20.288;2023-11-19T06:31:52;17.50;;;12.30;;
76714;SDS011;65644;44.990;20.288;2023-11-19T06:34:18;23.00;;;15.17;;
76714;SDS011;65644;44.990;20.288;2023-11-19T06:36:44;26.93;;;16.83;;
76714;SDS011;65644;44.990;20.288;2023-11-19T06:39:10;27.47;;;17.47;;
76714;SDS011;65644;44.990;20.288;2023-11-19T06:41:36;19.50;;;13.10;;
76714;SDS011;65644;44.990;20.288;2023-11-19T06:44:04;39.50;;;21.73;;
76714;SDS011;65644;44.990;20.288;2023-11-19T06:46:30;56.93;;;29.27;;
76714;SDS011;65644;44.990;20.288;2023-11-19T06:48:56;51.47;;;28.90;;
76714;SDS011;65644;44.990;20.288;2023-11-19T06:51:23;66.83;;;32.87;;
76714;SDS011;65644;44.990;20.288;2023-11-19T06:53:52;63.33;;;30.53;;
76714;SDS011;65644;44.990;20.288;2023-11-19T06:56:22;36.67;;;21.13;;
76714;SDS011;65644;44.990;20.288;2023-11-19T06:58:48;29.33;;;15.70;;
76714;SDS011;65644;44.990;20.288;2023-11-19T07:01:15;25.17;;;15.40;;
76714;SDS011;65644;44.990;20.288;2023-11-19T07:03:41;21.20;;;13.10;;
76714;SDS011;65644;44.990;20.288;2023-11-19T07:06:07;22.83;;;13.47;;
76714;SDS011;65644;44.990;20.288;2023-11-19T07:08:33;16.23;;;12.03;;
76714;SDS011;65644;44.990;20.288;2023-11-19T07:10:59;19.57;;;13.47;;
76714;SDS011;65644;44.990;20.288;2023-11-19T07:13:26;25.27;;;15.20;;
76714;SDS011;65644;44.990;20.288;2023-11-19T07:15:53;21.97;;;14.13;;
76714;SDS011;65644;44.990;20.288;2023-11-19T07:18:19;24.13;;;14.97;;
76714;SDS011;65644;44.990;20.288;2023-11-19T07:20:47;22.63;;;14.50;;
76714;SDS011;65644;44.990;20.288;2023-11-19T07:23:13;18.63;;;14.00;;
76714;SDS011;65644;44.990;20.288;2023-11-19T07:25:42;30.80;;;20.70;;
76714;SDS011;65644;44.990;20.288;2023-11-19T07:28:11;30.20;;;20.50;;
76714;SDS011;65644;44.990;20.288;2023-11-19T07:30:37;24.03;;;16.63;;
76714;SDS011;65644;44.990;20.288;2023-11-19T07:33:04;23.73;;;14.70;;
76714;SDS011;65644;44.990;20.288;2023-11-19T07:35:30;21.23;;;13.73;;
76714;SDS011;65644;44.990;20.288;2023-11-19T07:37:56;21.65;;;16.05;;
76714;SDS011;65644;44.990;20.288;2023-11-19T07:40:23;19.80;;;13.83;;
76714;SDS011;65644;44.990;20.288;2023-11-19T07:42:49;22.30;;;13.95;;
76714;SDS011;65644;44.990;20.288;2023-11-19T07:45:15;21.75;;;15.95;;
76714;SDS011;65644;44.990;20.288;2023-11-19T07:47:42;21.92;;;14.70;;
76714;SDS011;65644;44.990;20.288;2023-11-19T07:50:11;17.23;;;12.50;;
76714;SDS011;65644;44.990;20.288;2023-11-19T07:52:42;19.92;;;13.05;;
76714;SDS011;65644;44.990;20.288;2023-11-19T07:55:08;21.38;;;12.80;;
76714;SDS011;65644;44.990;20.288;2023-11-19T07:57:34;20.65;;;13.18;;
76714;SDS011;65644;44.990;20.288;2023-11-19T08:00:00;18.17;;;13.07;;
76714;SDS011;65644;44.990;20.288;2023-11-19T08:02:27;22.85;;;14.70;;
76714;SDS011;65644;44.990;20.288;2023-11-19T08:04:53;25.58;;;16.45;;
76714;SDS011;65644;44.990;20.288;2023-11-19T08:07:20;20.77;;;14.35;;
76714;SDS011;65644;44.990;20.288;2023-11-19T08:09:47;15.73;;;12.80;;
76714;SDS011;65644;44.990;20.288;2023-11-19T08:12:13;14.27;;;10.93;;
76714;SDS011;65644;44.990;20.288;2023-11-19T08:14:40;17.58;;;10.77;;
76714;SDS011;65644;44.990;20.288;2023-11-19T08:17:07;17.03;;;11.13;;
76714;SDS011;65644;44.990;20.288;2023-11-19T08:19:33;17.75;;;10.75;;
76714;SDS011;65644;44.990;20.288;2023-11-19T08:21:59;13.25;;;10.02;;
76714;SDS011;65644;44.990;20.288;2023-11-19T08:24:25;25.33;;;11.23;;
76714;SDS011;65644;44.990;20.288;2023-11-19T08:26:51;16.95;;;11.15;;
76714;SDS011;65644;44.990;20.288;2023-11-19T08:29:17;14.20;;;10.18;;
76714;SDS011;65644;44.990;20.288;2023-11-19T08:31:43;17.60;;;10.20;;
76714;SDS011;65644;44.990;20.288;2023-11-19T08:34:09;16.60;;;10.45;;
76714;SDS011;65644;44.990;20.288;2023-11-19T08:36:35;12.65;;;8.95;;
76714;SDS011;65644;44.990;20.288;2023-11-19T08:39:01;16.08;;;8.93;;
76714;SDS011;65644;44.990;20.288;2023-11-19T08:41:28;14.77;;;9.80;;
76714;SDS011;65644;44.990;20.288;2023-11-19T08:43:54;14.35;;;11.00;;
76714;SDS011;65644;44.990;20.288;2023-11-19T08:46:20;15.18;;;10.38;;
76714;SDS011;65644;44.990;20.288;2023-11-19T08:48:46;14.85;;;11.32;;
76714;SDS011;65644;44.990;20.288;2023-11-19T08:51:12;12.07;;;9.00;;
76714;SDS011;65644;44.990;20.288;2023-11-19T08:53:38;14.38;;;9.23;;
76714;SDS011;65644;44.990;20.288;2023-11-19T08:56:04;13.85;;;8.45;;
76714;SDS011;65644;44.990;20.288;2023-11-19T08:58:30;10.13;;;6.53;;
76714;SDS011;65644;44.990;20.288;2023-11-19T09:00:57;9.18;;;7.88;;
76714;SDS011;65644;44.990;20.288;2023-11-19T09:03:23;14.77;;;8.18;;
76714;SDS011;65644;44.990;20.288;2023-11-19T09:05:51;10.98;;;7.13;;
76714;SDS011;65644;44.990;20.288;2023-11-19T09:08:17;9.48;;;7.07;;
76714;SDS011;65644;44.990;20.288;2023-11-19T09:10:43;14.43;;;7.55;;
76714;SDS011;65644;44.990;20.288;2023-11-19T09:13:09;11.07;;;7.90;;
76714;SDS011;65644;44.990;20.288;2023-11-19T09:15:35;8.00;;;6.65;;
76714;SDS011;65644;44.990;20.288;2023-11-19T09:18:01;8.25;;;6.72;;
76714;SDS011;65644;44.990;20.288;2023-11-19T09:20:27;12.48;;;7.53;;
76714;SDS011;65644;44.990;20.288;2023-11-19T09:22:57;10.75;;;7.97;;
76714;SDS011;65644;44.990;20.288;2023-11-19T09:25:23;9.82;;;6.78;;
76714;SDS011;65644;44.990;20.288;2023-11-19T09:27:49;10.00;;;6.80;;
76714;SDS011;65644;44.990;20.288;2023-11-19T09:30:15;10.38;;;7.25;;
76714;SDS011;65644;44.990;20.288;2023-11-19T09:32:41;11.00;;;7.50;;
76714;SDS011;65644;44.990;20.288;2023-11-19T09:35:07;14.63;;;10.73;;
76714;SDS011;65644;44.990;20.288;2023-11-19T09:37:34;10.80;;;7.57;;
76714;SDS011;65644;44.990;20.288;2023-11-19T09:40:00;10.27;;;7.53;;
76714;SDS011;65644;44.990;20.288;2023-11-19T09:42:26;8.65;;;6.72;;
76714;SDS011;65644;44.990;20.288;2023-11-19T09:44:52;8.15;;;6.30;;
76714;SDS011;65644;44.990;20.288;2023-11-19T09:47:19;14.07;;;7.18;;
76714;SDS011;65644;44.990;20.288;2023-11-19T09:49:46;11.02;;;7.30;;
76714;SDS011;65644;44.990;20.288;2023-11-19T09:52:13;13.00;;;7.30;;
76714;SDS011;65644;44.990;20.288;2023-11-19T09:54:39;11.13;;;7.30;;
76714;SDS011;65644;44.990;20.288;2023-11-19T09:57:05;7.45;;;6.45;;
76714;SDS011;65644;44.990;20.288;2023-11-19T09:59:32;14.30;;;8.75;;
76714;SDS011;65644;44.990;20.288;2023-11-19T10:01:59;16.25;;;8.02;;
76714;SDS011;65644;44.990;20.288;2023-11-19T10:04:26;10.50;;;7.13;;
76714;SDS011;65644;44.990;20.288;2023-11-19T10:06:55;7.95;;;6.53;;
76714;SDS011;65644;44.990;20.288;2023-11-19T10:09:22;11.48;;;8.38;;
76714;SDS011;65644;44.990;20.288;2023-11-19T10:11:48;7.97;;;6.38;;
76714;SDS011;65644;44.990;20.288;2023-11-19T10:14:15;9.48;;;6.50;;
76714;SDS011;65644;44.990;20.288;2023-11-19T10:16:44;11.65;;;8.48;;
76714;SDS011;65644;44.990;20.288;2023-11-19T10:19:12;20.17;;;10.90;;
76714;SDS011;65644;44.990;20.288;2023-11-19T10:21:45;16.95;;;9.63;;
76714;SDS011;65644;44.990;20.288;2023-11-19T10:24:11;12.65;;;8.20;;
76714;SDS011;65644;44.990;20.288;2023-11-19T10:26:37;7.80;;;6.80;;
76714;SDS011;65644;44.990;20.288;2023-11-19T10:29:04;10.48;;;7.30;;
76714;SDS011;65644;44.990;20.288;2023-11-19T10:31:30;15.43;;;7.78;;
76714;SDS011;65644;44.990;20.288;2023-11-19T10:33:56;13.82;;;9.88;;
76714;SDS011;65644;44.990;20.288;2023-11-19T10:36:22;10.73;;;7.20;;
76714;SDS011;65644;44.990;20.288;2023-11-19T10:38:52;8.38;;;6.07;;
76714;SDS011;65644;44.990;20.288;2023-11-19T10:43:54;9.43;;;6.90;;
76714;SDS011;65644;44.990;20.288;2023-11-19T10:46:20;8.68;;;6.05;;
76714;SDS011;65644;44.990;20.288;2023-11-19T10:48:48;7.57;;;6.20;;
76714;SDS011;65644;44.990;20.288;2023-11-19T10:51:14;14.23;;;10.52;;
76714;SDS011;65644;44.990;20.288;2023-11-19T10:53:46;31.17;;;17.67;;
76714;SDS011;65644;44.990;20.288;2023-11-19T10:56:13;17.02;;;10.25;;
76714;SDS011;65644;44.990;20.288;2023-11-19T10:58:44;8.50;;;6.20;;
76714;SDS011;65644;44.990;20.288;2023-11-19T11:01:18;12.85;;;7.70;;
76714;SDS011;65644;44.990;20.288;2023-11-19T11:03:46;18.65;;;9.55;;
76714;SDS011;65644;44.990;20.288;2023-11-19T11:06:12;15.70;;;8.95;;
76714;SDS011;65644;44.990;20.288;2023-11-19T11:08:39;9.32;;;5.97;;
76714;SDS011;65644;44.990;20.288;2023-11-19T11:11:05;6.05;;;4.15;;
76714;SDS011;65644;44.990;20.288;2023-11-19T11:13:31;11.13;;;5.53;;
76714;SDS011;65644;44.990;20.288;2023-11-19T11:15:58;12.75;;;6.45;;
76714;SDS011;65644;44.990;20.288;2023-11-19T11:18:24;7.90;;;5.10;;
76714;SDS011;65644;44.990;20.288;2023-11-19T11:20:58;8.82;;;4.75;;
76714;SDS011;65644;44.990;20.288;2023-11-19T11:28:57;9.48;;;5.90;;
76714;SDS011;65644;44.990;20.288;2023-11-19T11:31:36;4.22;;;3.78;;
76714;SDS011;65644;44.990;20.288;2023-11-19T11:36:31;7.25;;;5.20;;
76714;SDS011;65644;44.990;20.288;2023-11-19T11:38:59;7.68;;;5.18;;
76714;SDS011;65644;44.990;20.288;2023-11-19T11:41:26;12.05;;;7.32;;
76714;SDS011;65644;44.990;20.288;2023-11-19T11:43:53;5.43;;;4.45;;
76714;SDS011;65644;44.990;20.288;2023-11-19T11:49:00;7.25;;;6.03;;
76714;SDS011;65644;44.990;20.288;2023-11-19T11:54:11;9.88;;;5.38;;
76714;SDS011;65644;44.990;20.288;2023-11-19T11:57:00;10.32;;;6.53;;
76714;SDS011;65644;44.990;20.288;2023-11-19T11:59:31;6.55;;;5.07;;
76714;SDS011;65644;44.990;20.288;2023-11-19T12:01:58;6.53;;;5.32;;
76714;SDS011;65644;44.990;20.288;2023-11-19T12:04:27;7.72;;;5.35;;
76714;SDS011;65644;44.990;20.288;2023-11-19T12:07:06;12.60;;;5.88;;
76714;SDS011;65644;44.990;20.288;2023-11-19T12:09:36;8.23;;;5.60;;
76714;SDS011;65644;44.990;20.288;2023-11-19T12:17:46;7.25;;;4.95;;
76714;SDS011;65644;44.990;20.288;2023-11-19T12:20:11;5.88;;;4.90;;
76714;SDS011;65644;44.990;20.288;2023-11-19T12:22:38;4.78;;;3.60;;
76714;SDS011;65644;44.990;20.288;2023-11-19T12:25:05;7.60;;;5.40;;
76714;SDS011;65644;44.990;20.288;2023-11-19T12:27:32;8.60;;;5.90;;
76714;SDS011;65644;44.990;20.288;2023-11-19T12:29:59;8.15;;;5.22;;
76714;SDS011;65644;44.990;20.288;2023-11-19T12:32:25;5.05;;;4.40;;
76714;SDS011;65644;44.990;20.288;2023-11-19T12:34:51;6.38;;;4.85;;
76714;SDS011;65644;44.990;20.288;2023-11-19T12:37:17;7.18;;;5.30;;
76714;SDS011;65644;44.990;20.288;2023-11-19T12:39:43;14.25;;;7.35;;
76714;SDS011;65644;44.990;20.288;2023-11-19T12:42:10;15.95;;;8.88;;
76714;SDS011;65644;44.990;20.288;2023-11-19T12:44:37;7.13;;;5.72;;
76714;SDS011;65644;44.990;20.288;2023-11-19T12:47:04;7.75;;;5.68;;
76714;SDS011;65644;44.990;20.288;2023-11-19T12:49:31;5.38;;;4.80;;
76714;SDS011;65644;44.990;20.288;2023-11-19T12:51:58;6.97;;;4.72;;
76714;SDS011;65644;44.990;20.288;2023-11-19T12:54:34;5.57;;;4.57;;
76714;SDS011;65644;44.990;20.288;2023-11-19T12:57:00;5.78;;;4.78;;
76714;SDS011;65644;44.990;20.288;2023-11-19T12:59:27;8.25;;;5.68;;
76714;SDS011;65644;44.990;20.288;2023-11-19T13:01:53;12.48;;;7.85;;
76714;SDS011;65644;44.990;20.288;2023-11-19T13:04:20;9.00;;;5.97;;
76714;SDS011;65644;44.990;20.288;2023-11-19T13:06:46;11.27;;;6.90;;
76714;SDS011;65644;44.990;20.288;2023-11-19T13:09:22;7.95;;;6.40;;
76714;SDS011;65644;44.990;20.288;2023-11-19T13:11:51;9.02;;;6.13;;
76714;SDS011;65644;44.990;20.288;2023-11-19T13:14:19;9.15;;;5.97;;
76714;SDS011;65644;44.990;20.288;2023-11-19T13:16:45;7.38;;;5.28;;
76714;SDS011;65644;44.990;20.288;2023-11-19T13:19:14;5.93;;;5.00;;
76714;SDS011;65644;44.990;20.288;2023-11-19T13:21:41;6.35;;;5.38;;
76714;SDS011;65644;44.990;20.288;2023-11-19T13:24:08;6.93;;;5.45;;
76714;SDS011;65644;44.990;20.288;2023-11-19T13:26:34;5.68;;;5.13;;
76714;SDS011;65644;44.990;20.288;2023-11-19T13:29:00;5.85;;;4.93;;
76714;SDS011;65644;44.990;20.288;2023-11-19T13:31:26;5.97;;;4.88;;
76714;SDS011;65644;44.990;20.288;2023-11-19T13:33:53;9.18;;;6.32;;
76714;SDS011;65644;44.990;20.288;2023-11-19T13:36:19;10.10;;;7.00;;
76714;SDS011;65644;44.990;20.288;2023-11-19T13:38:45;14.48;;;7.38;;
76714;SDS011;65644;44.990;20.288;2023-11-19T13:41:12;9.65;;;7.25;;
76714;SDS011;65644;44.990;20.288;2023-11-19T13:43:38;7.20;;;5.47;;
76714;SDS011;65644;44.990;20.288;2023-11-19T13:46:05;9.43;;;6.13;;
76714;SDS011;65644;44.990;20.288;2023-11-19T13:48:31;12.10;;;5.25;;
76714;SDS011;65644;44.990;20.288;2023-11-19T13:50:57;6.57;;;5.18;;
76714;SDS011;65644;44.990;20.288;2023-11-19T13:53:23;8.05;;;5.55;;
76714;SDS011;65644;44.990;20.288;2023-11-19T13:55:49;9.02;;;5.57;;
76714;SDS011;65644;44.990;20.288;2023-11-19T13:58:15;12.00;;;5.55;;
76714;SDS011;65644;44.990;20.288;2023-11-19T14:00:42;6.97;;;5.05;;
76714;SDS011;65644;44.990;20.288;2023-11-19T14:03:08;7.03;;;4.60;;
76714;SDS011;65644;44.990;20.288;2023-11-19T14:05:36;9.07;;;7.70;;
76714;SDS011;65644;44.990;20.288;2023-11-19T14:08:02;7.40;;;5.70;;
76714;SDS011;65644;44.990;20.288;2023-11-19T14:10:28;7.85;;;6.07;;
76714;SDS011;65644;44.990;20.288;2023-11-19T14:12:54;9.52;;;6.43;;
76714;SDS011;65644;44.990;20.288;2023-11-19T14:15:20;6.75;;;5.43;;
76714;SDS011;65644;44.990;20.288;2023-11-19T14:17:47;7.93;;;7.03;;
76714;SDS011;65644;44.990;20.288;2023-11-19T14:20:13;9.30;;;7.57;;
76714;SDS011;65644;44.990;20.288;2023-11-19T14:22:40;10.68;;;6.55;;
76714;SDS011;65644;44.990;20.288;2023-11-19T14:25:07;9.32;;;5.22;;
76714;SDS011;65644;44.990;20.288;2023-11-19T14:27:36;5.13;;;4.28;;
76714;SDS011;65644;44.990;20.288;2023-11-19T14:30:03;6.38;;;4.78;;
76714;SDS011;65644;44.990;20.288;2023-11-19T14:32:30;5.32;;;4.65;;
76714;SDS011;65644;44.990;20.288;2023-11-19T14:34:56;4.90;;;4.35;;
76714;SDS011;65644;44.990;20.288;2023-11-19T14:37:22;4.93;;;4.43;;
76714;SDS011;65644;44.990;20.288;2023-11-19T14:39:49;5.70;;;4.40;;
76714;SDS011;65644;44.990;20.288;2023-11-19T14:42:17;8.63;;;4.50;;
76714;SDS011;65644;44.990;20.288;2023-11-19T14:44:44;12.50;;;4.78;;